sensor_id;sensor_type;location;lat;lon;timestamp;temperature;humidity
42245;DHT22;27912;51.828;5.688;2022-07-22T00:00:47;16.70;99.90
42245;DHT22;27912;51.828;5.688;2022-07-22T00:03:12;16.70;99.90
42245;DHT22;27912;51.828;5.688;2022-07-22T00:05:38;16.70;99.90
42245;DHT22;27912;51.828;5.688;2022-07-22T00:08:04;16.70;99.90
42245;DHT22;27912;51.828;5.688;2022-07-22T00:10:29;16.70;99.90
42245;DHT22;27912;51.828;5.688;2022-07-22T00:12:55;16.70;99.90
42245;DHT22;27912;51.828;5.688;2022-07-22T00:15:20;16.70;99.90
42245;DHT22;27912;51.828;5.688;2022-07-22T00:17:46;16.70;99.90
42245;DHT22;27912;51.828;5.688;2022-07-22T00:20:12;16.70;99.90
42245;DHT22;27912;51.828;5.688;2022-07-22T00:22:38;16.70;99.90
42245;DHT22;27912;51.828;5.688;2022-07-22T00:25:03;16.70;99.90
42245;DHT22;27912;51.828;5.688;2022-07-22T00:27:29;16.60;99.90
42245;DHT22;27912;51.828;5.688;2022-07-22T00:29:55;16.60;99.90
42245;DHT22;27912;51.828;5.688;2022-07-22T00:32:20;16.60;99.90
42245;DHT22;27912;51.828;5.688;2022-07-22T00:34:46;16.70;99.90
42245;DHT22;27912;51.828;5.688;2022-07-22T00:37:11;16.60;99.90
42245;DHT22;27912;51.828;5.688;2022-07-22T00:39:37;16.60;99.90
42245;DHT22;27912;51.828;5.688;2022-07-22T00:42:03;16.60;99.90
42245;DHT22;27912;51.828;5.688;2022-07-22T00:44:28;16.60;99.90
42245;DHT22;27912;51.828;5.688;2022-07-22T00:46:54;16.60;99.90
42245;DHT22;27912;51.828;5.688;2022-07-22T00:49:19;16.60;99.90
42245;DHT22;27912;51.828;5.688;2022-07-22T00:51:46;16.60;99.90
42245;DHT22;27912;51.828;5.688;2022-07-22T00:54:11;16.60;99.90
42245;DHT22;27912;51.828;5.688;2022-07-22T00:56:37;16.60;99.90
42245;DHT22;27912;51.828;5.688;2022-07-22T00:59:07;16.60;99.90
42245;DHT22;27912;51.828;5.688;2022-07-22T01:01:33;16.60;99.90
42245;DHT22;27912;51.828;5.688;2022-07-22T01:03:58;16.60;99.90
42245;DHT22;27912;51.828;5.688;2022-07-22T01:06:24;16.60;99.90
42245;DHT22;27912;51.828;5.688;2022-07-22T01:08:50;16.60;99.90
42245;DHT22;27912;51.828;5.688;2022-07-22T01:11:18;16.60;99.90
42245;DHT22;27912;51.828;5.688;2022-07-22T01:13:44;16.60;99.90
42245;DHT22;27912;51.828;5.688;2022-07-22T01:16:11;16.60;99.90
42245;DHT22;27912;51.828;5.688;2022-07-22T01:18:37;16.70;99.90
42245;DHT22;27912;51.828;5.688;2022-07-22T01:21:04;16.70;99.90
42245;DHT22;27912;51.828;5.688;2022-07-22T01:23:30;16.70;99.90
42245;DHT22;27912;51.828;5.688;2022-07-22T01:25:56;16.70;99.90
42245;DHT22;27912;51.828;5.688;2022-07-22T01:28:23;16.70;99.90
42245;DHT22;27912;51.828;5.688;2022-07-22T01:30:48;16.70;99.90
42245;DHT22;27912;51.828;5.688;2022-07-22T01:33:19;16.60;99.90
42245;DHT22;27912;51.828;5.688;2022-07-22T01:35:45;16.70;99.90
42245;DHT22;27912;51.828;5.688;2022-07-22T01:38:11;16.70;99.90
42245;DHT22;27912;51.828;5.688;2022-07-22T01:40:37;16.70;99.90
42245;DHT22;27912;51.828;5.688;2022-07-22T01:43:03;16.70;99.90
42245;DHT22;27912;51.828;5.688;2022-07-22T01:45:28;16.70;99.90
42245;DHT22;27912;51.828;5.688;2022-07-22T01:47:54;16.70;99.90
42245;DHT22;27912;51.828;5.688;2022-07-22T01:50:19;16.70;99.90
42245;DHT22;27912;51.828;5.688;2022-07-22T01:52:45;16.70;99.90
42245;DHT22;27912;51.828;5.688;2022-07-22T01:55:11;16.70;99.90
42245;DHT22;27912;51.828;5.688;2022-07-22T01:57:38;16.70;99.90
42245;DHT22;27912;51.828;5.688;2022-07-22T02:00:08;16.70;99.90
42245;DHT22;27912;51.828;5.688;2022-07-22T02:02:35;16.70;99.90
42245;DHT22;27912;51.828;5.688;2022-07-22T02:05:02;16.70;99.90
42245;DHT22;27912;51.828;5.688;2022-07-22T02:07:28;16.70;99.90
42245;DHT22;27912;51.828;5.688;2022-07-22T02:09:53;16.60;99.90
42245;DHT22;27912;51.828;5.688;2022-07-22T02:12:19;16.60;99.90
42245;DHT22;27912;51.828;5.688;2022-07-22T02:14:45;16.60;99.90
42245;DHT22;27912;51.828;5.688;2022-07-22T02:17:11;16.60;99.90
42245;DHT22;27912;51.828;5.688;2022-07-22T02:19:37;16.60;99.90
42245;DHT22;27912;51.828;5.688;2022-07-22T02:22:02;16.60;99.90
42245;DHT22;27912;51.828;5.688;2022-07-22T02:24:28;16.60;99.90
42245;DHT22;27912;51.828;5.688;2022-07-22T02:26:54;16.60;99.90
42245;DHT22;27912;51.828;5.688;2022-07-22T02:29:19;16.50;99.90
42245;DHT22;27912;51.828;5.688;2022-07-22T02:31:45;16.50;99.90
42245;DHT22;27912;51.828;5.688;2022-07-22T02:34:10;16.50;99.90
42245;DHT22;27912;51.828;5.688;2022-07-22T02:36:36;16.50;99.90
42245;DHT22;27912;51.828;5.688;2022-07-22T02:39:03;16.40;99.90
42245;DHT22;27912;51.828;5.688;2022-07-22T02:41:28;16.40;99.90
42245;DHT22;27912;51.828;5.688;2022-07-22T02:43:54;16.40;99.90
42245;DHT22;27912;51.828;5.688;2022-07-22T02:46:24;16.40;99.90
42245;DHT22;27912;51.828;5.688;2022-07-22T02:48:49;16.40;99.90
42245;DHT22;27912;51.828;5.688;2022-07-22T02:51:15;16.40;99.90
42245;DHT22;27912;51.828;5.688;2022-07-22T02:53:41;16.40;99.90
42245;DHT22;27912;51.828;5.688;2022-07-22T02:56:07;16.30;99.90
42245;DHT22;27912;51.828;5.688;2022-07-22T02:58:32;16.30;99.90
42245;DHT22;27912;51.828;5.688;2022-07-22T03:00:58;16.30;99.90
42245;DHT22;27912;51.828;5.688;2022-07-22T03:03:23;16.30;99.90
42245;DHT22;27912;51.828;5.688;2022-07-22T03:05:49;16.30;99.90
42245;DHT22;27912;51.828;5.688;2022-07-22T03:08:15;16.30;99.90
42245;DHT22;27912;51.828;5.688;2022-07-22T03:10:41;16.30;99.90
42245;DHT22;27912;51.828;5.688;2022-07-22T03:13:06;16.30;99.90
42245;DHT22;27912;51.828;5.688;2022-07-22T03:15:32;16.30;99.90
42245;DHT22;27912;51.828;5.688;2022-07-22T03:17:58;16.30;99.90
42245;DHT22;27912;51.828;5.688;2022-07-22T03:20:23;16.30;99.90
42245;DHT22;27912;51.828;5.688;2022-07-22T03:22:49;16.30;99.90
42245;DHT22;27912;51.828;5.688;2022-07-22T03:25:14;16.30;99.90
42245;DHT22;27912;51.828;5.688;2022-07-22T03:27:40;16.30;99.90
42245;DHT22;27912;51.828;5.688;2022-07-22T03:30:06;16.20;99.90
42245;DHT22;27912;51.828;5.688;2022-07-22T03:32:31;16.20;99.90
42245;DHT22;27912;51.828;5.688;2022-07-22T03:34:57;16.20;99.90
42245;DHT22;27912;51.828;5.688;2022-07-22T03:37:23;16.10;99.90
42245;DHT22;27912;51.828;5.688;2022-07-22T03:39:48;16.10;99.90
42245;DHT22;27912;51.828;5.688;2022-07-22T03:42:14;16.20;99.90
42245;DHT22;27912;51.828;5.688;2022-07-22T03:44:39;16.10;99.90
42245;DHT22;27912;51.828;5.688;2022-07-22T03:47:05;16.10;99.90
42245;DHT22;27912;51.828;5.688;2022-07-22T03:49:31;16.10;99.90
42245;DHT22;27912;51.828;5.688;2022-07-22T03:51:58;16.10;99.90
42245;DHT22;27912;51.828;5.688;2022-07-22T03:54:23;16.10;99.90
42245;DHT22;27912;51.828;5.688;2022-07-22T03:56:49;16.10;99.90
42245;DHT22;27912;51.828;5.688;2022-07-22T03:59:15;16.10;99.90
42245;DHT22;27912;51.828;5.688;2022-07-22T04:01:41;16.10;99.90
42245;DHT22;27912;51.828;5.688;2022-07-22T04:04:06;16.20;99.90
42245;DHT22;27912;51.828;5.688;2022-07-22T04:06:32;16.20;99.90
42245;DHT22;27912;51.828;5.688;2022-07-22T04:08:58;16.20;99.90
42245;DHT22;27912;51.828;5.688;2022-07-22T04:11:23;16.20;99.90
42245;DHT22;27912;51.828;5.688;2022-07-22T04:13:49;16.20;99.90
42245;DHT22;27912;51.828;5.688;2022-07-22T04:16:14;16.30;99.90
42245;DHT22;27912;51.828;5.688;2022-07-22T04:18:40;16.30;99.90
42245;DHT22;27912;51.828;5.688;2022-07-22T04:21:05;16.30;99.90
42245;DHT22;27912;51.828;5.688;2022-07-22T04:23:31;16.30;99.90
42245;DHT22;27912;51.828;5.688;2022-07-22T04:25:57;16.30;99.90
42245;DHT22;27912;51.828;5.688;2022-07-22T04:28:22;16.40;99.90
42245;DHT22;27912;51.828;5.688;2022-07-22T04:30:48;16.40;99.90
42245;DHT22;27912;51.828;5.688;2022-07-22T04:33:13;16.40;99.90
42245;DHT22;27912;51.828;5.688;2022-07-22T04:35:39;16.40;99.90
42245;DHT22;27912;51.828;5.688;2022-07-22T04:38:05;16.50;99.90
42245;DHT22;27912;51.828;5.688;2022-07-22T04:40:30;16.50;99.90
42245;DHT22;27912;51.828;5.688;2022-07-22T04:42:56;16.50;99.90
42245;DHT22;27912;51.828;5.688;2022-07-22T04:45:21;16.50;99.90
42245;DHT22;27912;51.828;5.688;2022-07-22T04:47:47;16.60;99.90
42245;DHT22;27912;51.828;5.688;2022-07-22T04:50:12;16.60;99.90
42245;DHT22;27912;51.828;5.688;2022-07-22T04:52:38;16.60;99.90
42245;DHT22;27912;51.828;5.688;2022-07-22T04:55:04;16.60;99.90
42245;DHT22;27912;51.828;5.688;2022-07-22T04:57:30;16.70;99.90
42245;DHT22;27912;51.828;5.688;2022-07-22T04:59:56;16.70;99.90
42245;DHT22;27912;51.828;5.688;2022-07-22T05:02:21;16.70;99.90
42245;DHT22;27912;51.828;5.688;2022-07-22T05:04:47;16.80;99.90
42245;DHT22;27912;51.828;5.688;2022-07-22T05:07:12;16.80;99.90
42245;DHT22;27912;51.828;5.688;2022-07-22T05:09:38;16.90;99.90
42245;DHT22;27912;51.828;5.688;2022-07-22T05:12:04;16.90;99.90
42245;DHT22;27912;51.828;5.688;2022-07-22T05:14:30;16.90;99.90
42245;DHT22;27912;51.828;5.688;2022-07-22T05:16:57;17.00;99.90
42245;DHT22;27912;51.828;5.688;2022-07-22T05:19:22;17.10;99.90
42245;DHT22;27912;51.828;5.688;2022-07-22T05:21:48;17.10;99.90
42245;DHT22;27912;51.828;5.688;2022-07-22T05:24:13;17.10;99.90
42245;DHT22;27912;51.828;5.688;2022-07-22T05:26:39;17.10;99.90
42245;DHT22;27912;51.828;5.688;2022-07-22T05:29:05;17.20;99.90
42245;DHT22;27912;51.828;5.688;2022-07-22T05:31:30;17.30;99.90
42245;DHT22;27912;51.828;5.688;2022-07-22T05:33:56;17.30;99.90
42245;DHT22;27912;51.828;5.688;2022-07-22T05:36:22;17.40;99.90
42245;DHT22;27912;51.828;5.688;2022-07-22T05:38:47;17.40;99.90
42245;DHT22;27912;51.828;5.688;2022-07-22T05:41:13;17.50;99.90
42245;DHT22;27912;51.828;5.688;2022-07-22T05:43:38;17.50;99.90
42245;DHT22;27912;51.828;5.688;2022-07-22T05:46:04;17.60;99.90
42245;DHT22;27912;51.828;5.688;2022-07-22T05:48:30;17.60;99.90
42245;DHT22;27912;51.828;5.688;2022-07-22T05:50:56;17.70;99.90
42245;DHT22;27912;51.828;5.688;2022-07-22T05:53:21;17.70;99.90
42245;DHT22;27912;51.828;5.688;2022-07-22T05:55:47;17.70;99.90
42245;DHT22;27912;51.828;5.688;2022-07-22T05:58:12;17.80;99.90
42245;DHT22;27912;51.828;5.688;2022-07-22T06:00:38;17.80;99.90
42245;DHT22;27912;51.828;5.688;2022-07-22T06:03:05;17.80;99.90
42245;DHT22;27912;51.828;5.688;2022-07-22T06:05:30;17.80;99.90
42245;DHT22;27912;51.828;5.688;2022-07-22T06:07:56;17.80;99.90
42245;DHT22;27912;51.828;5.688;2022-07-22T06:10:22;17.90;99.90
42245;DHT22;27912;51.828;5.688;2022-07-22T06:12:47;18.00;99.90
42245;DHT22;27912;51.828;5.688;2022-07-22T06:15:13;18.00;99.90
42245;DHT22;27912;51.828;5.688;2022-07-22T06:17:38;18.00;99.90
42245;DHT22;27912;51.828;5.688;2022-07-22T06:20:04;18.10;99.90
42245;DHT22;27912;51.828;5.688;2022-07-22T06:22:30;18.20;99.90
42245;DHT22;27912;51.828;5.688;2022-07-22T06:24:56;18.30;99.90
42245;DHT22;27912;51.828;5.688;2022-07-22T06:27:21;18.40;99.90
42245;DHT22;27912;51.828;5.688;2022-07-22T06:29:47;18.50;99.90
42245;DHT22;27912;51.828;5.688;2022-07-22T06:32:12;18.50;99.90
42245;DHT22;27912;51.828;5.688;2022-07-22T06:34:38;18.50;99.90
42245;DHT22;27912;51.828;5.688;2022-07-22T06:37:03;18.50;99.90
42245;DHT22;27912;51.828;5.688;2022-07-22T06:39:29;18.60;99.90
42245;DHT22;27912;51.828;5.688;2022-07-22T06:41:54;18.60;99.90
42245;DHT22;27912;51.828;5.688;2022-07-22T06:44:20;18.60;99.90
42245;DHT22;27912;51.828;5.688;2022-07-22T06:46:46;18.70;99.90
42245;DHT22;27912;51.828;5.688;2022-07-22T06:49:11;18.80;99.90
42245;DHT22;27912;51.828;5.688;2022-07-22T06:51:37;18.90;99.90
42245;DHT22;27912;51.828;5.688;2022-07-22T06:54:03;19.00;99.90
42245;DHT22;27912;51.828;5.688;2022-07-22T06:56:28;19.00;99.90
42245;DHT22;27912;51.828;5.688;2022-07-22T06:58:54;19.10;99.90
42245;DHT22;27912;51.828;5.688;2022-07-22T07:01:19;19.20;99.90
42245;DHT22;27912;51.828;5.688;2022-07-22T07:03:45;19.20;99.90
42245;DHT22;27912;51.828;5.688;2022-07-22T07:06:11;19.30;99.90
42245;DHT22;27912;51.828;5.688;2022-07-22T07:08:40;19.30;99.90
42245;DHT22;27912;51.828;5.688;2022-07-22T07:11:06;19.40;99.90
42245;DHT22;27912;51.828;5.688;2022-07-22T07:13:32;19.40;99.90
42245;DHT22;27912;51.828;5.688;2022-07-22T07:15:57;19.40;99.90
42245;DHT22;27912;51.828;5.688;2022-07-22T07:18:23;19.60;99.90
42245;DHT22;27912;51.828;5.688;2022-07-22T07:20:49;19.60;99.90
42245;DHT22;27912;51.828;5.688;2022-07-22T07:23:15;19.70;99.90
42245;DHT22;27912;51.828;5.688;2022-07-22T07:25:41;19.80;99.90
42245;DHT22;27912;51.828;5.688;2022-07-22T07:28:06;19.90;99.90
42245;DHT22;27912;51.828;5.688;2022-07-22T07:30:32;19.90;99.90
42245;DHT22;27912;51.828;5.688;2022-07-22T07:32:58;19.90;99.90
42245;DHT22;27912;51.828;5.688;2022-07-22T07:35:26;19.90;99.90
42245;DHT22;27912;51.828;5.688;2022-07-22T07:37:51;19.90;99.90
42245;DHT22;27912;51.828;5.688;2022-07-22T07:40:17;19.90;99.90
42245;DHT22;27912;51.828;5.688;2022-07-22T07:42:42;20.00;99.90
42245;DHT22;27912;51.828;5.688;2022-07-22T07:45:08;20.10;99.90
42245;DHT22;27912;51.828;5.688;2022-07-22T07:47:34;20.20;99.90
42245;DHT22;27912;51.828;5.688;2022-07-22T07:49:59;20.20;99.90
42245;DHT22;27912;51.828;5.688;2022-07-22T07:52:27;20.30;99.90
42245;DHT22;27912;51.828;5.688;2022-07-22T07:54:53;20.40;99.90
42245;DHT22;27912;51.828;5.688;2022-07-22T07:57:21;20.40;99.90
42245;DHT22;27912;51.828;5.688;2022-07-22T07:59:47;20.50;99.90
42245;DHT22;27912;51.828;5.688;2022-07-22T08:02:13;20.60;99.90
42245;DHT22;27912;51.828;5.688;2022-07-22T08:04:38;20.60;99.90
42245;DHT22;27912;51.828;5.688;2022-07-22T08:07:05;20.70;99.90
42245;DHT22;27912;51.828;5.688;2022-07-22T08:09:32;20.80;99.90
42245;DHT22;27912;51.828;5.688;2022-07-22T08:11:57;20.90;99.90
42245;DHT22;27912;51.828;5.688;2022-07-22T08:14:23;20.90;99.90
42245;DHT22;27912;51.828;5.688;2022-07-22T08:16:49;21.00;99.90
42245;DHT22;27912;51.828;5.688;2022-07-22T08:19:14;21.00;99.90
42245;DHT22;27912;51.828;5.688;2022-07-22T08:21:40;21.10;99.90
42245;DHT22;27912;51.828;5.688;2022-07-22T08:24:08;21.20;99.90
42245;DHT22;27912;51.828;5.688;2022-07-22T08:26:34;21.30;99.90
42245;DHT22;27912;51.828;5.688;2022-07-22T08:29:00;21.50;99.90
42245;DHT22;27912;51.828;5.688;2022-07-22T08:31:27;21.70;99.80
42245;DHT22;27912;51.828;5.688;2022-07-22T08:33:53;22.00;99.40
42245;DHT22;27912;51.828;5.688;2022-07-22T08:36:18;22.20;98.80
42245;DHT22;27912;51.828;5.688;2022-07-22T08:38:44;22.30;98.20
42245;DHT22;27912;51.828;5.688;2022-07-22T08:41:11;22.50;97.80
42245;DHT22;27912;51.828;5.688;2022-07-22T08:43:38;22.50;97.00
42245;DHT22;27912;51.828;5.688;2022-07-22T08:46:09;22.70;96.90
42245;DHT22;27912;51.828;5.688;2022-07-22T08:48:37;22.70;96.20
42245;DHT22;27912;51.828;5.688;2022-07-22T08:51:02;22.70;95.90
42245;DHT22;27912;51.828;5.688;2022-07-22T08:53:28;22.70;95.60
42245;DHT22;27912;51.828;5.688;2022-07-22T08:55:53;22.70;95.60
42245;DHT22;27912;51.828;5.688;2022-07-22T08:58:19;22.60;95.30
42245;DHT22;27912;51.828;5.688;2022-07-22T09:00:45;22.40;95.40
42245;DHT22;27912;51.828;5.688;2022-07-22T09:03:21;22.20;95.60
42245;DHT22;27912;51.828;5.688;2022-07-22T09:05:48;22.10;95.80
42245;DHT22;27912;51.828;5.688;2022-07-22T09:08:14;22.00;95.90
42245;DHT22;27912;51.828;5.688;2022-07-22T09:10:40;21.90;96.10
42245;DHT22;27912;51.828;5.688;2022-07-22T09:13:08;21.90;96.00
42245;DHT22;27912;51.828;5.688;2022-07-22T09:15:37;21.90;96.20
42245;DHT22;27912;51.828;5.688;2022-07-22T09:18:04;21.90;96.30
42245;DHT22;27912;51.828;5.688;2022-07-22T09:20:31;21.90;96.10
42245;DHT22;27912;51.828;5.688;2022-07-22T09:22:57;21.90;96.00
42245;DHT22;27912;51.828;5.688;2022-07-22T09:25:31;22.00;95.70
42245;DHT22;27912;51.828;5.688;2022-07-22T09:30:47;21.90;95.40
42245;DHT22;27912;51.828;5.688;2022-07-22T09:33:13;21.80;95.40
42245;DHT22;27912;51.828;5.688;2022-07-22T09:35:39;21.80;95.60
42245;DHT22;27912;51.828;5.688;2022-07-22T09:38:07;21.80;95.60
42245;DHT22;27912;51.828;5.688;2022-07-22T09:40:35;21.90;95.40
42245;DHT22;27912;51.828;5.688;2022-07-22T09:43:12;22.00;95.40
42245;DHT22;27912;51.828;5.688;2022-07-22T09:45:54;22.00;95.30
42245;DHT22;27912;51.828;5.688;2022-07-22T09:48:22;22.00;95.20
42245;DHT22;27912;51.828;5.688;2022-07-22T09:50:49;22.00;95.20
42245;DHT22;27912;51.828;5.688;2022-07-22T09:53:21;21.90;94.70
42245;DHT22;27912;51.828;5.688;2022-07-22T09:55:47;21.90;94.90
42245;DHT22;27912;51.828;5.688;2022-07-22T09:58:13;21.90;95.20
42245;DHT22;27912;51.828;5.688;2022-07-22T10:00:40;22.00;95.50
42245;DHT22;27912;51.828;5.688;2022-07-22T10:03:08;22.00;95.20
42245;DHT22;27912;51.828;5.688;2022-07-22T10:05:39;22.00;95.00
42245;DHT22;27912;51.828;5.688;2022-07-22T10:08:06;22.10;95.40
42245;DHT22;27912;51.828;5.688;2022-07-22T10:10:34;22.40;95.50
42245;DHT22;27912;51.828;5.688;2022-07-22T10:13:01;22.80;94.50
42245;DHT22;27912;51.828;5.688;2022-07-22T10:15:28;22.90;94.00
42245;DHT22;27912;51.828;5.688;2022-07-22T10:17:56;22.90;93.50
42245;DHT22;27912;51.828;5.688;2022-07-22T10:20:24;23.00;93.30
42245;DHT22;27912;51.828;5.688;2022-07-22T10:23:04;23.00;93.60
42245;DHT22;27912;51.828;5.688;2022-07-22T10:25:32;22.90;93.20
42245;DHT22;27912;51.828;5.688;2022-07-22T10:28:04;22.80;93.20
42245;DHT22;27912;51.828;5.688;2022-07-22T10:30:35;22.70;93.00
42245;DHT22;27912;51.828;5.688;2022-07-22T10:35:34;22.70;93.40
42245;DHT22;27912;51.828;5.688;2022-07-22T10:38:06;22.60;93.40
42245;DHT22;27912;51.828;5.688;2022-07-22T10:40:46;22.60;93.70
42245;DHT22;27912;51.828;5.688;2022-07-22T10:43:14;22.60;93.70
42245;DHT22;27912;51.828;5.688;2022-07-22T10:45:45;22.70;93.50
42245;DHT22;27912;51.828;5.688;2022-07-22T10:48:22;22.80;93.30
42245;DHT22;27912;51.828;5.688;2022-07-22T10:50:50;23.00;93.30
42245;DHT22;27912;51.828;5.688;2022-07-22T10:53:19;23.10;93.10
42245;DHT22;27912;51.828;5.688;2022-07-22T10:56:06;23.40;92.80
42245;DHT22;27912;51.828;5.688;2022-07-22T11:01:03;24.10;92.50
42245;DHT22;27912;51.828;5.688;2022-07-22T11:03:29;24.40;91.90
42245;DHT22;27912;51.828;5.688;2022-07-22T11:05:55;24.70;91.00
42245;DHT22;27912;51.828;5.688;2022-07-22T11:08:25;24.90;90.50
42245;DHT22;27912;51.828;5.688;2022-07-22T11:10:51;25.10;90.50
42245;DHT22;27912;51.828;5.688;2022-07-22T11:13:37;25.00;89.90
42245;DHT22;27912;51.828;5.688;2022-07-22T11:16:20;24.50;90.00
42245;DHT22;27912;51.828;5.688;2022-07-22T11:18:58;24.20;90.60
42245;DHT22;27912;51.828;5.688;2022-07-22T11:21:27;24.00;90.90
42245;DHT22;27912;51.828;5.688;2022-07-22T11:23:55;23.80;91.00
42245;DHT22;27912;51.828;5.688;2022-07-22T11:26:39;23.70;90.90
42245;DHT22;27912;51.828;5.688;2022-07-22T11:29:05;23.60;91.30
42245;DHT22;27912;51.828;5.688;2022-07-22T11:31:30;23.50;91.40
42245;DHT22;27912;51.828;5.688;2022-07-22T11:34:09;23.40;91.40
42245;DHT22;27912;51.828;5.688;2022-07-22T11:36:37;23.40;91.30
42245;DHT22;27912;51.828;5.688;2022-07-22T11:39:04;23.50;91.20
42245;DHT22;27912;51.828;5.688;2022-07-22T11:41:30;23.40;91.10
42245;DHT22;27912;51.828;5.688;2022-07-22T11:43:57;23.40;91.00
42245;DHT22;27912;51.828;5.688;2022-07-22T11:46:23;23.30;90.60
42245;DHT22;27912;51.828;5.688;2022-07-22T11:48:51;23.30;90.80
42245;DHT22;27912;51.828;5.688;2022-07-22T11:51:17;23.30;90.70
42245;DHT22;27912;51.828;5.688;2022-07-22T11:53:43;23.30;91.20
42245;DHT22;27912;51.828;5.688;2022-07-22T11:56:10;23.40;90.80
42245;DHT22;27912;51.828;5.688;2022-07-22T12:01:08;23.50;90.50
42245;DHT22;27912;51.828;5.688;2022-07-22T12:03:35;23.60;90.10
42245;DHT22;27912;51.828;5.688;2022-07-22T12:06:04;23.50;90.00
42245;DHT22;27912;51.828;5.688;2022-07-22T12:08:30;23.50;89.80
42245;DHT22;27912;51.828;5.688;2022-07-22T12:10:57;23.40;89.70
42245;DHT22;27912;51.828;5.688;2022-07-22T12:13:28;23.50;89.60
42245;DHT22;27912;51.828;5.688;2022-07-22T12:15:54;23.60;88.90
42245;DHT22;27912;51.828;5.688;2022-07-22T12:18:22;23.70;88.20
42245;DHT22;27912;51.828;5.688;2022-07-22T12:20:50;23.70;87.50
42245;DHT22;27912;51.828;5.688;2022-07-22T12:23:15;23.70;87.80
42245;DHT22;27912;51.828;5.688;2022-07-22T12:25:56;23.90;87.30
42245;DHT22;27912;51.828;5.688;2022-07-22T12:28:22;24.00;86.40
42245;DHT22;27912;51.828;5.688;2022-07-22T12:30:50;24.20;87.10
42245;DHT22;27912;51.828;5.688;2022-07-22T12:33:17;24.50;85.70
42245;DHT22;27912;51.828;5.688;2022-07-22T12:35:43;24.50;84.90
42245;DHT22;27912;51.828;5.688;2022-07-22T12:38:10;24.40;85.30
42245;DHT22;27912;51.828;5.688;2022-07-22T12:40:37;24.50;84.50
42245;DHT22;27912;51.828;5.688;2022-07-22T12:43:05;24.50;82.80
42245;DHT22;27912;51.828;5.688;2022-07-22T12:45:35;24.30;83.10
42245;DHT22;27912;51.828;5.688;2022-07-22T12:53:03;24.60;83.80
42245;DHT22;27912;51.828;5.688;2022-07-22T12:55:30;24.80;83.10
42245;DHT22;27912;51.828;5.688;2022-07-22T12:57:55;24.80;82.80
42245;DHT22;27912;51.828;5.688;2022-07-22T13:00:26;24.80;82.00
42245;DHT22;27912;51.828;5.688;2022-07-22T13:02:52;24.90;82.20
42245;DHT22;27912;51.828;5.688;2022-07-22T13:05:18;24.80;82.80
42245;DHT22;27912;51.828;5.688;2022-07-22T13:07:44;24.80;83.10
42245;DHT22;27912;51.828;5.688;2022-07-22T13:10:12;24.90;81.90
42245;DHT22;27912;51.828;5.688;2022-07-22T13:12:37;24.90;80.40
42245;DHT22;27912;51.828;5.688;2022-07-22T13:15:04;24.90;80.70
42245;DHT22;27912;51.828;5.688;2022-07-22T13:17:30;25.00;79.70
42245;DHT22;27912;51.828;5.688;2022-07-22T13:19:55;25.00;78.70
42245;DHT22;27912;51.828;5.688;2022-07-22T13:22:21;25.10;78.80
42245;DHT22;27912;51.828;5.688;2022-07-22T13:24:46;25.40;77.80
42245;DHT22;27912;51.828;5.688;2022-07-22T13:27:12;25.50;77.50
42245;DHT22;27912;51.828;5.688;2022-07-22T13:29:38;25.40;76.60
42245;DHT22;27912;51.828;5.688;2022-07-22T13:32:04;25.40;77.90
42245;DHT22;27912;51.828;5.688;2022-07-22T13:34:30;25.50;77.50
42245;DHT22;27912;51.828;5.688;2022-07-22T13:36:55;25.60;77.50
42245;DHT22;27912;51.828;5.688;2022-07-22T13:39:22;25.60;76.50
42245;DHT22;27912;51.828;5.688;2022-07-22T13:41:47;25.50;76.90
42245;DHT22;27912;51.828;5.688;2022-07-22T13:44:13;25.60;75.90
42245;DHT22;27912;51.828;5.688;2022-07-22T13:46:38;25.50;76.10
42245;DHT22;27912;51.828;5.688;2022-07-22T13:49:04;25.60;76.20
42245;DHT22;27912;51.828;5.688;2022-07-22T13:51:29;25.60;75.70
42245;DHT22;27912;51.828;5.688;2022-07-22T13:53:56;25.50;75.20
42245;DHT22;27912;51.828;5.688;2022-07-22T13:56:21;25.30;75.70
42245;DHT22;27912;51.828;5.688;2022-07-22T13:58:47;25.20;76.30
42245;DHT22;27912;51.828;5.688;2022-07-22T14:01:13;25.10;76.40
42245;DHT22;27912;51.828;5.688;2022-07-22T14:03:39;25.20;77.30
42245;DHT22;27912;51.828;5.688;2022-07-22T14:06:05;25.20;76.00
42245;DHT22;27912;51.828;5.688;2022-07-22T14:08:31;25.30;75.20
42245;DHT22;27912;51.828;5.688;2022-07-22T14:10:57;25.40;74.30
42245;DHT22;27912;51.828;5.688;2022-07-22T14:13:23;25.60;74.40
42245;DHT22;27912;51.828;5.688;2022-07-22T14:15:48;25.80;74.00
42245;DHT22;27912;51.828;5.688;2022-07-22T14:18:14;25.90;74.20
42245;DHT22;27912;51.828;5.688;2022-07-22T14:20:40;25.90;74.00
42245;DHT22;27912;51.828;5.688;2022-07-22T14:23:06;26.00;74.40
42245;DHT22;27912;51.828;5.688;2022-07-22T14:25:35;26.20;73.90
42245;DHT22;27912;51.828;5.688;2022-07-22T14:28:01;26.40;73.60
42245;DHT22;27912;51.828;5.688;2022-07-22T14:30:26;26.40;73.20
42245;DHT22;27912;51.828;5.688;2022-07-22T14:32:53;26.50;72.40
42245;DHT22;27912;51.828;5.688;2022-07-22T14:35:19;26.50;72.10
42245;DHT22;27912;51.828;5.688;2022-07-22T14:37:45;26.50;71.40
42245;DHT22;27912;51.828;5.688;2022-07-22T14:40:11;26.60;71.40
42245;DHT22;27912;51.828;5.688;2022-07-22T14:42:36;26.60;71.80
42245;DHT22;27912;51.828;5.688;2022-07-22T14:45:02;26.60;71.30
42245;DHT22;27912;51.828;5.688;2022-07-22T14:47:29;26.60;71.10
42245;DHT22;27912;51.828;5.688;2022-07-22T14:49:55;26.60;71.30
42245;DHT22;27912;51.828;5.688;2022-07-22T14:52:20;26.50;71.10
42245;DHT22;27912;51.828;5.688;2022-07-22T14:54:46;26.50;71.30
42245;DHT22;27912;51.828;5.688;2022-07-22T14:57:11;26.50;70.90
42245;DHT22;27912;51.828;5.688;2022-07-22T14:59:37;26.40;71.20
42245;DHT22;27912;51.828;5.688;2022-07-22T15:02:02;26.40;71.90
42245;DHT22;27912;51.828;5.688;2022-07-22T15:04:28;26.40;70.70
42245;DHT22;27912;51.828;5.688;2022-07-22T15:06:53;26.50;70.20
42245;DHT22;27912;51.828;5.688;2022-07-22T15:09:19;26.50;70.20
42245;DHT22;27912;51.828;5.688;2022-07-22T15:11:44;26.50;70.80
42245;DHT22;27912;51.828;5.688;2022-07-22T15:14:10;26.40;70.40
42245;DHT22;27912;51.828;5.688;2022-07-22T15:16:36;26.30;70.90
42245;DHT22;27912;51.828;5.688;2022-07-22T15:19:01;26.30;70.80
42245;DHT22;27912;51.828;5.688;2022-07-22T15:21:27;26.40;70.90
42245;DHT22;27912;51.828;5.688;2022-07-22T15:23:52;26.30;69.90
42245;DHT22;27912;51.828;5.688;2022-07-22T15:26:18;26.20;69.80
42245;DHT22;27912;51.828;5.688;2022-07-22T15:28:43;26.00;69.50
42245;DHT22;27912;51.828;5.688;2022-07-22T15:31:09;25.90;70.10
42245;DHT22;27912;51.828;5.688;2022-07-22T15:33:36;26.00;71.10
42245;DHT22;27912;51.828;5.688;2022-07-22T15:36:02;26.00;71.30
42245;DHT22;27912;51.828;5.688;2022-07-22T15:38:28;26.00;71.50
42245;DHT22;27912;51.828;5.688;2022-07-22T15:40:53;26.10;71.00